Time;durP1;ratioP1;P1;durP2;ratioP2;P2;SDS_P1;SDS_P2;PMS_P1;PMS_P2;Temp;Humidity;BMP_temperature;BMP_pressure;BME280_temperature;BME280_humidity;BME280_pressure;Samples;Min_cycle;Max_cycle;Signal;HPM_P1;HPM_P2
2021/01/03 00:01:53;;;;;;;75.43;32.22;;;4.40;99.90;;;;;;5068170;28;20043;-90
2021/01/03 00:04:21;;;;;;;81.55;33.83;;;4.40;99.90;;;;;;5068166;28;20401;-90
2021/01/03 00:07:21;;;;;;;73.63;31.23;;;4.40;99.90;;;;;;5067515;28;20079;-92
2021/01/03 00:10:00;;;;;;;79.72;33.67;;;4.40;99.90;;;;;;5048638;28;20055;-92
2021/01/03 00:12:28;;;;;;;92.93;34.22;;;4.40;99.90;;;;;;5052538;28;20040;-91
2021/01/03 00:14:54;;;;;;;89.78;35.55;;;4.40;99.90;;;;;;5036040;28;20849;-90
2021/01/03 00:17:23;;;;;;;85.03;35.38;;;4.40;99.90;;;;;;5035436;28;20056;-91
2021/01/03 00:19:49;;;;;;;92.70;35.40;;;4.40;99.90;;;;;;5016838;28;20386;-91
2021/01/03 00:22:18;;;;;;;92.30;34.58;;;4.50;99.90;;;;;;5040884;28;20041;-92
2021/01/03 00:24:44;;;;;;;85.57;36.25;;;4.50;99.90;;;;;;5039198;28;20051;-92
2021/01/03 00:27:17;;;;;;;91.00;35.53;;;4.40;99.90;;;;;;5051829;28;20059;-91
2021/01/03 00:29:43;;;;;;;80.20;34.80;;;4.50;99.90;;;;;;5052251;28;20044;-91
2021/01/03 00:32:19;;;;;;;86.50;36.58;;;4.50;99.90;;;;;;5050826;28;20052;-91
2021/01/03 00:34:45;;;;;;;90.53;36.22;;;4.50;99.90;;;;;;5051720;28;20052;-92
2021/01/03 00:37:11;;;;;;;91.70;36.60;;;4.40;99.90;;;;;;5030546;28;20045;-92
2021/01/03 00:39:38;;;;;;;89.22;35.92;;;4.50;99.90;;;;;;5059724;28;20040;-91
2021/01/03 00:42:04;;;;;;;98.10;35.10;;;4.40;99.90;;;;;;5052248;28;20135;-91
2021/01/03 00:49:25;;;;;;;;;;;;;;;;;;;;;
2021/01/03 01:01:26;;;;;;;85.28;33.65;;;4.50;99.90;;;;;;4844850;29;20805;-93
2021/01/03 01:04:22;;;;;;;92.18;36.55;;;4.50;99.90;;;;;;4821874;29;20150;-93
2021/01/03 01:06:49;;;;;;;95.82;36.65;;;4.50;99.90;;;;;;4866429;28;20133;-93
2021/01/03 01:09:15;;;;;;;98.13;37.13;;;4.50;99.90;;;;;;5013491;28;20131;-91
2021/01/03 01:12:05;;;;;;;93.03;37.47;;;4.50;99.90;;;;;;4990723;28;20059;-92
2021/01/03 01:14:32;;;;;;;92.43;36.53;;;4.50;99.90;;;;;;5012060;28;20123;-91
2021/01/03 01:16:58;;;;;;;89.90;35.08;;;4.50;99.90;;;;;;5009244;28;20226;-90
2021/01/03 01:19:45;;;;;;;95.13;36.35;;;4.50;99.90;;;;;;4996059;28;20033;-92
2021/01/03 01:22:11;;;;;;;89.45;35.67;;;4.50;99.90;;;;;;5004818;28;20045;-91
2021/01/03 01:24:54;;;;;;;88.75;35.90;;;4.60;99.90;;;;;;4997766;28;20048;-92
2021/01/03 01:27:43;;;;;;;96.30;36.20;;;4.60;99.90;;;;;;4999725;28;20624;-91
2021/01/03 01:30:13;;;;;;;98.10;37.22;;;4.60;99.90;;;;;;5005743;28;20048;-91
2021/01/03 01:32:44;;;;;;;93.45;36.63;;;4.60;99.90;;;;;;5017481;28;20478;-92
2021/01/03 01:35:13;;;;;;;92.03;36.60;;;4.60;99.90;;;;;;4996715;28;20044;-90
2021/01/03 01:37:45;;;;;;;89.63;36.15;;;4.50;99.90;;;;;;5027735;28;20078;-90
2021/01/03 01:40:18;;;;;;;95.07;36.72;;;4.70;99.90;;;;;;5034533;28;20047;-91
2021/01/03 01:42:46;;;;;;;86.00;36.63;;;4.60;99.90;;;;;;5050744;28;20140;-90
2021/01/03 01:45:15;;;;;;;99.22;38.03;;;4.50;99.90;;;;;;5049864;28;20511;-89
2021/01/03 01:48:06;;;;;;;96.32;37.13;;;4.50;99.90;;;;;;5072108;28;20062;-92
2021/01/03 01:50:49;;;;;;;95.50;38.17;;;4.50;99.90;;;;;;5039410;28;20040;-92
2021/01/03 01:53:39;;;;;;;92.72;36.58;;;4.50;99.90;;;;;;5070255;28;20086;-91
2021/01/03 01:56:40;;;;;;;92.70;35.97;;;4.40;99.90;;;;;;5055257;28;20048;-92
2021/01/03 01:59:36;;;;;;;104.60;38.15;;;4.40;99.90;;;;;;5027662;28;20448;-92
2021/01/03 02:02:28;;;;;;;106.38;36.97;;;4.40;99.90;;;;;;5063311;28;20090;-93
2021/01/03 02:05:01;;;;;;;91.57;37.78;;;4.40;99.90;;;;;;5053110;28;20106;-90
2021/01/03 02:07:35;;;;;;;88.90;34.95;;;4.30;99.90;;;;;;5034722;28;20119;-91
2021/01/03 02:10:23;;;;;;;89.80;34.72;;;4.30;99.90;;;;;;5052990;28;20075;-93
2021/01/03 02:13:00;;;;;;;97.32;37.30;;;4.40;99.90;;;;;;5037252;28;20469;-91
2021/01/03 02:15:29;;;;;;;103.10;37.80;;;4.40;99.90;;;;;;5036156;28;20044;-91
2021/01/03 02:17:55;;;;;;;115.72;40.45;;;4.30;99.90;;;;;;5036526;28;20139;-90
2021/01/03 02:20:32;;;;;;;116.97;39.10;;;4.30;99.90;;;;;;5052345;28;20063;-91
2021/01/03 02:23:13;;;;;;;107.57;40.05;;;4.40;99.90;;;;;;5036632;28;20501;-91
2021/01/03 02:25:44;;;;;;;100.55;39.70;;;4.30;99.90;;;;;;5036502;28;20048;-91
2021/01/03 02:28:20;;;;;;;107.82;38.88;;;4.30;99.90;;;;;;5036127;28;20044;-91
2021/01/03 02:30:57;;;;;;;105.70;39.03;;;4.30;99.90;;;;;;5054422;28;20048;-91
2021/01/03 02:33:30;;;;;;;114.60;39.72;;;4.30;99.90;;;;;;5040022;28;20064;-90
2021/01/03 02:36:30;;;;;;;109.38;39.80;;;4.30;99.90;;;;;;5055214;28;20135;-91
2021/01/03 02:39:27;;;;;;;98.95;37.60;;;4.20;99.90;;;;;;5044934;28;20157;-91
2021/01/03 02:42:11;;;;;;;98.75;37.55;;;4.30;99.90;;;;;;5041822;28;20044;-92
2021/01/03 02:44:37;;;;;;;101.93;37.20;;;4.30;99.90;;;;;;5052694;28;20052;-91
2021/01/03 02:47:04;;;;;;;101.38;37.67;;;4.20;99.90;;;;;;5053560;28;20048;-90
2021/01/03 02:49:30;;;;;;;105.30;38.58;;;4.30;99.90;;;;;;5052546;28;20516;-91
2021/01/03 02:52:07;;;;;;;97.53;36.40;;;4.40;99.90;;;;;;5038018;28;20052;-91
2021/01/03 02:54:33;;;;;;;103.22;37.65;;;4.20;99.90;;;;;;5052790;28;20469;-91
2021/01/03 02:57:05;;;;;;;100.30;37.70;;;4.20;99.90;;;;;;5052734;28;20094;-90
2021/01/03 02:59:31;;;;;;;96.60;37.38;;;4.30;99.90;;;;;;5052816;28;20052;-91
2021/01/03 03:01:57;;;;;;;101.18;38.28;;;4.30;99.90;;;;;;5053748;28;20044;-90
2021/01/03 03:04:23;;;;;;;83.93;34.25;;;4.30;99.90;;;;;;5052964;28;20079;-90
2021/01/03 03:06:49;;;;;;;88.60;35.22;;;4.30;99.90;;;;;;5052941;28;20473;-90
2021/01/03 03:09:17;;;;;;;90.32;36.22;;;4.30;99.90;;;;;;5069737;28;20487;-91
2021/01/03 03:11:49;;;;;;;89.97;36.03;;;4.30;99.90;;;;;;5052826;28;20044;-92
2021/01/03 03:14:15;;;;;;;100.88;37.30;;;4.30;99.90;;;;;;5053216;28;20044;-91
2021/01/03 03:20:33;;;;;;;98.57;37.05;;;4.30;99.90;;;;;;5059873;28;20052;-92
2021/01/03 03:22:58;;;;;;;101.20;36.40;;;4.30;99.90;;;;;;5066214;28;20114;-90
2021/01/03 03:25:25;;;;;;;90.85;36.97;;;4.20;99.90;;;;;;5052368;28;20048;-90
2021/01/03 03:28:13;;;;;;;98.07;37.72;;;4.20;99.90;;;;;;5052841;28;20041;-90
2021/01/03 03:30:46;;;;;;;91.07;36.45;;;4.20;99.90;;;;;;5033640;28;20669;-93
2021/01/03 03:33:21;;;;;;;102.57;38.35;;;4.20;99.90;;;;;;5041453;28;20132;-93
2021/01/03 03:35:47;;;;;;;96.85;38.58;;;4.20;99.90;;;;;;5052714;28;20133;-90
2021/01/03 03:38:13;;;;;;;95.20;37.60;;;4.20;99.90;;;;;;5035796;28;20040;-93
2021/01/03 03:40:41;;;;;;;90.40;37.70;;;4.30;99.90;;;;;;5068655;28;20056;-92
2021/01/03 03:43:09;;;;;;;89.90;36.72;;;4.20;99.90;;;;;;5052848;28;20916;-91
2021/01/03 03:45:35;;;;;;;79.32;34.25;;;4.20;99.90;;;;;;5052061;28;20045;-90
2021/01/03 03:48:04;;;;;;;86.22;34.70;;;4.20;99.90;;;;;;5051665;28;20041;-91
2021/01/03 03:50:47;;;;;;;88.18;34.97;;;4.20;99.90;;;;;;5054552;28;20290;-91
2021/01/03 03:53:18;;;;;;;91.57;35.95;;;4.10;99.90;;;;;;5037055;28;20162;-90
2021/01/03 03:55:53;;;;;;;96.80;36.40;;;4.10;99.90;;;;;;5052961;28;20037;-92
2021/01/03 04:02:11;;;;;;;89.07;36.35;;;4.00;99.90;;;;;;5019599;28;20513;-92
2021/01/03 04:12:22;;;;;;;101.68;36.85;;;4.00;99.90;;;;;;4985081;28;20104;-93
2021/01/03 04:15:09;;;;;;;94.70;36.87;;;4.00;99.90;;;;;;4998820;28;20139;-91
2021/01/03 04:17:50;;;;;;;;;;;;;;;;;;;;;
2021/01/03 04:20:53;;;;;;;88.80;35.50;;;4.00;99.90;;;;;;5047714;28;20094;-92
2021/01/03 04:24:03;;;;;;;97.40;36.50;;;4.00;99.90;;;;;;5043177;28;20049;-91
2021/01/03 04:27:17;;;;;;;100.18;40.42;;;4.00;99.90;;;;;;5068980;28;20036;-93
2021/01/03 04:29:43;;;;;;;80.35;32.28;;;4.10;99.90;;;;;;5036672;28;20045;-91
2021/01/03 04:32:18;;;;;;;81.72;35.72;;;4.00;99.90;;;;;;5046272;28;20062;-94
2021/01/03 04:34:56;;;;;;;88.10;36.42;;;4.10;99.90;;;;;;5052754;28;20761;-93
2021/01/03 04:37:25;;;;;;;90.95;37.42;;;4.10;99.90;;;;;;5052930;28;20068;-90
2021/01/03 04:39:57;;;;;;;97.00;38.55;;;4.10;99.90;;;;;;5052808;28;20172;-93
2021/01/03 04:42:33;;;;;;;95.78;40.03;;;4.10;99.90;;;;;;5051450;28;20060;-90
2021/01/03 04:45:22;;;;;;;96.18;40.33;;;4.20;99.90;;;;;;5051839;28;20049;-91
2021/01/03 04:48:03;;;;;;;99.63;40.55;;;4.10;99.90;;;;;;5051355;28;20048;-90
2021/01/03 04:51:07;;;;;;;98.57;39.90;;;4.20;99.90;;;;;;5035304;28;20049;-90
2021/01/03 04:54:34;;;;;;;;;;;;;;;;;;;;;
2021/01/03 04:58:15;;;;;;;87.53;39.15;;;4.20;99.90;;;;;;5058405;28;20044;-90
2021/01/03 05:01:33;;;;;;;99.88;42.05;;;4.20;99.90;;;;;;5068123;28;20807;-91
2021/01/03 05:04:41;;;;;;;99.25;40.88;;;4.20;99.90;;;;;;5052342;28;20048;-92
2021/01/03 05:07:48;;;;;;;98.07;40.15;;;4.30;99.90;;;;;;5040609;28;20040;-92
2021/01/03 05:11:35;;;;;;;98.03;41.10;;;4.30;99.90;;;;;;5036313;28;20516;-92
2021/01/03 05:17:21;;;;;;;99.90;41.95;;;4.30;99.90;;;;;;5023364;28;20054;-91
2021/01/03 05:19:47;;;;;;;99.18;40.83;;;4.30;99.90;;;;;;5049898;28;20044;-90
2021/01/03 05:22:33;;;;;;;98.90;40.58;;;4.30;99.90;;;;;;5055234;28;20198;-91
2021/01/03 05:25:04;;;;;;;105.72;42.47;;;4.30;99.90;;;;;;5043117;28;20057;-89
2021/01/03 05:28:12;;;;;;;104.95;41.20;;;4.20;99.90;;;;;;5054478;28;20063;-90
2021/01/03 05:30:43;;;;;;;108.72;41.05;;;4.30;99.90;;;;;;5049676;28;20155;-91
2021/01/03 05:33:14;;;;;;;102.90;41.90;;;4.30;99.90;;;;;;5055201;28;20161;-92
2021/01/03 05:35:43;;;;;;;97.00;40.13;;;4.30;99.90;;;;;;5070812;28;20040;-91
2021/01/03 05:38:32;;;;;;;99.50;39.55;;;4.40;99.90;;;;;;5072705;28;20039;-91
2021/01/03 05:41:44;;;;;;;95.00;39.90;;;4.30;99.90;;;;;;5055095;28;20040;-91
2021/01/03 05:44:32;;;;;;;99.07;40.30;;;4.30;99.90;;;;;;5044352;28;20056;-92
2021/01/03 05:47:36;;;;;;;102.95;40.13;;;4.30;99.90;;;;;;5057842;28;20051;-91
2021/01/03 05:50:27;;;;;;;99.03;39.17;;;4.30;99.90;;;;;;5054887;28;20049;-90
2021/01/03 05:53:00;;;;;;;92.93;38.90;;;4.40;99.90;;;;;;5054450;28;20052;-91
2021/01/03 05:55:34;;;;;;;102.03;39.80;;;4.30;99.90;;;;;;5055323;28;20044;-91
2021/01/03 05:58:17;;;;;;;101.60;38.55;;;4.30;99.90;;;;;;5071577;28;20093;-90
2021/01/03 06:00:44;;;;;;;96.15;38.85;;;4.30;99.90;;;;;;5074634;28;20024;-90
2021/01/03 06:03:27;;;;;;;97.18;37.65;;;4.20;99.90;;;;;;5048408;28;20485;-91
2021/01/03 06:06:26;;;;;;;87.80;34.50;;;4.30;99.90;;;;;;5067046;28;20067;-92
2021/01/03 06:08:59;;;;;;;94.25;38.05;;;4.30;99.90;;;;;;5070325;28;20037;-91
2021/01/03 06:11:26;;;;;;;94.72;37.85;;;4.30;99.90;;;;;;5048743;28;20056;-89
2021/01/03 06:13:56;;;;;;;85.45;36.38;;;4.30;99.90;;;;;;5038983;28;20045;-89
2021/01/03 06:16:29;;;;;;;87.38;36.53;;;4.30;99.90;;;;;;5037428;28;20497;-88
2021/01/03 06:19:10;;;;;;;90.25;37.13;;;4.30;99.90;;;;;;5044071;28;20584;-89
2021/01/03 06:21:41;;;;;;;84.20;36.20;;;4.30;99.90;;;;;;5036280;28;20047;-90
2021/01/03 06:24:27;;;;;;;80.85;33.90;;;4.30;99.90;;;;;;5053809;28;20545;-91
2021/01/03 06:27:00;;;;;;;96.30;37.33;;;4.20;99.90;;;;;;5037158;28;20178;-90
2021/01/03 06:30:16;;;;;;;;;;;;;;;;;;;;;
2021/01/03 06:33:04;;;;;;;78.32;34.17;;;4.20;99.90;;;;;;5066558;28;20533;-91
2021/01/03 06:35:39;;;;;;;87.85;35.13;;;4.30;99.90;;;;;;5049681;28;20079;-91
2021/01/03 06:38:26;;;;;;;75.15;31.90;;;4.30;99.90;;;;;;5053972;28;20139;-91
2021/01/03 06:41:03;;;;;;;83.72;33.67;;;4.20;99.90;;;;;;5068239;28;20045;-90
2021/01/03 06:44:37;;;;;;;80.70;33.05;;;4.20;99.90;;;;;;5070232;28;20105;-90
2021/01/03 06:47:22;;;;;;;74.35;32.17;;;4.20;99.90;;;;;;5031077;28;20433;-90
2021/01/03 06:50:16;;;;;;;78.07;32.30;;;4.20;99.90;;;;;;5034967;28;20087;-91
2021/01/03 06:52:50;;;;;;;75.53;33.05;;;4.20;99.90;;;;;;5032716;28;20048;-90
2021/01/03 06:55:56;;;;;;;74.03;32.47;;;4.20;99.90;;;;;;5052410;28;20048;-89
2021/01/03 06:58:57;;;;;;;73.68;31.88;;;4.20;99.90;;;;;;5070455;28;20052;-91
2021/01/03 07:01:34;;;;;;;80.20;32.92;;;4.10;99.90;;;;;;5033387;28;20056;-90
2021/01/03 07:04:10;;;;;;;90.30;32.63;;;4.20;99.90;;;;;;5048475;28;20059;-91
2021/01/03 07:06:40;;;;;;;72.85;31.80;;;4.10;99.90;;;;;;5070290;28;20171;-89
2021/01/03 07:09:12;;;;;;;70.70;29.77;;;4.10;99.90;;;;;;5069850;28;21279;-91
2021/01/03 07:11:45;;;;;;;69.60;29.10;;;4.20;99.90;;;;;;5053085;28;20485;-91
2021/01/03 07:14:36;;;;;;;69.30;28.88;;;4.20;99.90;;;;;;5052751;28;20135;-90
2021/01/03 07:17:04;;;;;;;69.20;30.10;;;4.20;99.90;;;;;;5052373;28;20485;-89
2021/01/03 07:19:30;;;;;;;69.85;28.88;;;4.20;99.90;;;;;;5053333;28;20043;-90
2021/01/03 07:22:11;;;;;;;66.85;29.35;;;4.20;99.90;;;;;;5068772;28;20036;-91
2021/01/03 07:24:40;;;;;;;65.43;28.48;;;4.40;99.90;;;;;;5053092;28;20048;-90
2021/01/03 07:27:20;;;;;;;64.22;28.38;;;4.20;99.90;;;;;;5069360;28;20068;-91
2021/01/03 07:30:09;;;;;;;65.77;27.83;;;4.20;99.90;;;;;;5052488;28;20041;-91
2021/01/03 07:32:53;;;;;;;63.15;28.60;;;4.20;99.90;;;;;;5053710;28;20582;-90
2021/01/03 07:35:38;;;;;;;62.75;28.30;;;4.20;99.90;;;;;;5060306;28;20052;-90
2021/01/03 07:38:21;;;;;;;65.18;28.38;;;4.20;99.90;;;;;;5052031;28;20056;-90
2021/01/03 07:41:04;;;;;;;66.90;30.00;;;4.20;99.90;;;;;;5052189;28;20054;-90
2021/01/03 07:43:56;;;;;;;66.18;28.92;;;4.20;99.90;;;;;;5038434;28;20366;-91
2021/01/03 07:46:49;;;;;;;66.63;28.55;;;4.10;99.90;;;;;;5052166;28;20050;-91
2021/01/03 07:50:10;;;;;;;;;;;;;;;;;;;;;
2021/01/03 07:53:15;;;;;;;72.60;29.57;;;4.30;99.90;;;;;;5057914;28;20056;-88
2021/01/03 07:55:42;;;;;;;67.45;28.92;;;4.20;99.90;;;;;;5068916;28;20079;-89
2021/01/03 07:58:16;;;;;;;63.90;29.52;;;4.20;99.90;;;;;;5068298;28;20427;-90
2021/01/03 08:00:44;;;;;;;71.82;30.58;;;4.20;99.90;;;;;;5063352;28;20506;-89
2021/01/03 08:03:16;;;;;;;65.90;29.17;;;4.20;99.90;;;;;;5074000;28;20081;-88
2021/01/03 08:05:44;;;;;;;62.47;27.75;;;4.20;99.90;;;;;;5060831;28;20052;-89
2021/01/03 08:08:21;;;;;;;71.53;29.52;;;4.20;99.90;;;;;;5044949;28;20126;-89
2021/01/03 08:10:52;;;;;;;69.10;29.92;;;4.30;99.90;;;;;;5062527;28;20051;-89
2021/01/03 08:13:34;;;;;;;72.43;31.07;;;4.30;99.90;;;;;;5069048;28;20040;-92
2021/01/03 08:16:06;;;;;;;70.15;30.10;;;4.20;99.90;;;;;;5051499;28;20294;-91
2021/01/03 08:19:01;;;;;;;60.90;29.20;;;4.20;99.90;;;;;;5033653;28;20076;-92
2021/01/03 08:21:28;;;;;;;66.97;29.75;;;4.20;99.90;;;;;;5042893;28;20048;-90
2021/01/03 08:24:12;;;;;;;67.78;29.35;;;4.30;99.90;;;;;;5050751;28;20056;-89
2021/01/03 08:27:08;;;;;;;63.13;29.95;;;4.30;99.90;;;;;;5055109;28;20025;-92
2021/01/03 08:33:15;;;;;;;61.40;28.27;;;4.30;99.90;;;;;;5060368;28;20111;-91
2021/01/03 08:35:41;;;;;;;60.78;29.48;;;4.20;99.90;;;;;;5068523;28;20139;-90
2021/01/03 08:38:07;;;;;;;58.25;28.83;;;4.30;99.90;;;;;;5067554;28;20108;-89
2021/01/03 08:40:35;;;;;;;57.55;28.25;;;4.30;99.90;;;;;;5052447;28;20420;-91
2021/01/03 08:43:10;;;;;;;64.72;28.98;;;4.30;99.90;;;;;;5047240;28;20588;-91
2021/01/03 08:45:41;;;;;;;64.95;29.27;;;4.30;99.90;;;;;;5052575;28;20049;-91
2021/01/03 08:48:18;;;;;;;60.95;27.42;;;4.30;99.90;;;;;;5030976;28;20044;-91
2021/01/03 08:51:12;;;;;;;65.30;29.05;;;4.40;99.90;;;;;;5049694;28;20052;-90
2021/01/03 08:53:43;;;;;;;63.60;29.05;;;4.40;99.90;;;;;;5034363;28;20064;-92
2021/01/03 08:56:17;;;;;;;60.22;28.13;;;4.40;99.90;;;;;;5061962;28;20052;-90
2021/01/03 08:58:46;;;;;;;61.45;26.83;;;4.40;99.90;;;;;;5054011;28;20635;-92
2021/01/03 09:01:25;;;;;;;62.42;28.83;;;4.30;99.90;;;;;;5048432;28;20041;-91
2021/01/03 09:03:56;;;;;;;53.80;26.60;;;4.30;99.90;;;;;;5035718;28;20122;-90
2021/01/03 09:06:23;;;;;;;57.47;27.85;;;4.40;99.90;;;;;;5040756;28;20090;-91
2021/01/03 09:08:50;;;;;;;59.55;26.48;;;4.40;99.90;;;;;;5007930;28;20037;-90
2021/01/03 09:11:48;;;;;;;60.13;28.05;;;4.50;99.90;;;;;;5031791;28;20044;-91
2021/01/03 09:14:25;;;;;;;54.28;26.05;;;4.40;99.90;;;;;;5053532;28;20050;-91
2021/01/03 09:17:02;;;;;;;58.92;26.92;;;4.40;99.90;;;;;;5058210;28;20506;-90
2021/01/03 09:20:06;;;;;;;56.22;26.98;;;4.40;99.90;;;;;;5067420;28;20036;-90
2021/01/03 09:22:36;;;;;;;48.22;24.65;;;4.40;99.90;;;;;;5067930;28;20037;-89
2021/01/03 09:25:32;;;;;;;53.83;25.42;;;4.40;99.90;;;;;;5066832;28;20040;-89
2021/01/03 09:28:22;;;;;;;59.60;25.55;;;4.40;99.90;;;;;;5048227;28;20417;-88
2021/01/03 09:30:48;;;;;;;51.90;24.05;;;4.50;99.90;;;;;;5054056;28;20040;-89
2021/01/03 09:33:15;;;;;;;50.30;23.95;;;4.50;99.90;;;;;;5050744;28;20126;-88
2021/01/03 09:36:04;;;;;;;54.05;24.83;;;4.50;99.90;;;;;;5061751;28;20041;-88
2021/01/03 09:38:39;;;;;;;46.78;23.67;;;4.50;99.90;;;;;;5055378;28;20147;-87
2021/01/03 09:41:37;;;;;;;46.20;22.30;;;4.50;99.90;;;;;;5063314;28;20060;-89
2021/01/03 09:44:23;;;;;;;43.85;21.73;;;4.60;99.90;;;;;;5063919;28;20187;-87
2021/01/03 09:47:12;;;;;;;44.75;20.92;;;4.70;99.90;;;;;;5063580;28;20037;-88
2021/01/03 09:49:40;;;;;;;45.63;21.10;;;4.70;99.90;;;;;;5063346;28;20568;-88
2021/01/03 09:52:28;;;;;;;46.53;21.90;;;4.70;99.90;;;;;;5065586;28;20075;-89
2021/01/03 09:55:08;;;;;;;46.83;20.40;;;4.70;99.90;;;;;;5066276;28;20044;-87
2021/01/03 09:57:34;;;;;;;;;;;4.80;99.90;;;;;;5067936;28;20043;-87
2021/01/03 10:00:04;;;;;;;45.92;19.98;;;4.80;99.90;;;;;;5051981;28;19921;-87
2021/01/03 10:02:30;;;;;;;39.25;20.35;;;4.90;99.90;;;;;;5050757;28;20056;-92
2021/01/03 10:04:56;;;;;;;46.42;20.35;;;4.80;99.90;;;;;;4887668;28;41075;-90
2021/01/03 10:07:25;;;;;;;47.10;19.50;;;4.90;99.90;;;;;;5001699;28;20127;-90
2021/01/03 10:10:06;;;;;;;48.73;21.30;;;4.90;99.90;;;;;;5017867;28;20068;-89
2021/01/03 10:12:38;;;;;;;45.70;21.20;;;4.90;99.90;;;;;;5025886;28;20264;-87
2021/01/03 10:15:09;;;;;;;47.10;21.45;;;4.90;99.90;;;;;;5029595;28;20068;-88
2021/01/03 10:17:36;;;;;;;32.97;14.55;;;4.90;99.40;;;;;;5009615;28;20052;-87
2021/01/03 10:20:15;;;;;;;45.30;21.10;;;4.80;99.40;;;;;;5011137;28;20044;-87
2021/01/03 10:22:43;;;;;;;45.40;19.30;;;4.70;99.80;;;;;;5013730;28;20115;-88
2021/01/03 10:25:12;;;;;;;46.72;21.95;;;4.60;99.70;;;;;;5012283;28;20053;-87
2021/01/03 10:27:39;;;;;;;53.30;23.00;;;4.60;99.90;;;;;;5029845;28;20049;-87
2021/01/03 10:30:08;;;;;;;40.92;19.27;;;4.80;99.90;;;;;;5028905;28;20049;-88
2021/01/03 10:32:38;;;;;;;42.92;20.88;;;4.50;99.40;;;;;;5030746;28;20042;-88
2021/01/03 10:35:06;;;;;;;37.95;18.20;;;4.50;99.90;;;;;;5012284;28;20133;-88
2021/01/03 10:37:32;;;;;;;42.05;18.65;;;4.50;99.90;;;;;;5029637;28;20037;-89
2021/01/03 10:39:58;;;;;;;40.30;18.08;;;4.50;99.90;;;;;;5028980;28;20040;-89
2021/01/03 10:42:24;;;;;;;35.47;16.73;;;4.50;99.70;;;;;;5013302;28;20124;-89
2021/01/03 10:44:49;;;;;;;33.03;17.08;;;4.50;99.90;;;;;;5030949;28;20076;-88
2021/01/03 10:47:15;;;;;;;35.85;16.42;;;4.50;99.90;;;;;;5013023;28;20120;-88
2021/01/03 10:49:41;;;;;;;29.10;14.43;;;4.50;99.80;;;;;;5029623;28;20092;-88
2021/01/03 10:52:07;;;;;;;25.35;14.05;;;4.50;99.80;;;;;;5029425;28;20045;-88
2021/01/03 10:54:33;;;;;;;21.48;12.80;;;4.60;99.90;;;;;;5026335;28;20065;-89
2021/01/03 10:56:59;;;;;;;22.63;11.98;;;4.60;99.90;;;;;;5028326;28;20037;-88
2021/01/03 10:59:26;;;;;;;21.90;12.00;;;4.60;99.90;;;;;;5029144;28;20465;-88
2021/01/03 11:01:52;;;;;;;15.02;8.25;;;4.60;99.70;;;;;;5019004;28;20445;-88
2021/01/03 11:04:22;;;;;;;18.55;11.18;;;4.60;99.30;;;;;;5025614;28;20048;-88
2021/01/03 11:06:51;;;;;;;13.95;9.10;;;4.60;99.30;;;;;;5013098;28;20101;-88
2021/01/03 11:09:23;;;;;;;16.20;10.48;;;4.60;98.80;;;;;;5012484;28;20037;-88
2021/01/03 11:11:50;;;;;;;17.55;9.13;;;4.50;99.50;;;;;;5030973;28;20036;-90
2021/01/03 11:14:17;;;;;;;16.50;8.48;;;4.40;98.90;;;;;;5012044;28;20048;-88
2021/01/03 11:16:45;;;;;;;14.63;9.25;;;4.50;99.30;;;;;;5010392;28;20100;-88
2021/01/03 11:19:14;;;;;;;17.88;9.45;;;4.60;99.80;;;;;;5027973;28;20620;-88
2021/01/03 11:21:41;;;;;;;12.52;8.30;;;4.60;99.40;;;;;;5029624;28;20072;-87
2021/01/03 11:24:09;;;;;;;11.43;6.78;;;4.50;98.60;;;;;;5028098;28;20124;-88
2021/01/03 11:26:38;;;;;;;12.23;8.40;;;4.50;98.00;;;;;;5028656;28;20064;-88
2021/01/03 11:29:06;;;;;;;10.45;7.03;;;4.50;98.50;;;;;;5028351;28;20034;-88
2021/01/03 11:31:44;;;;;;;12.63;8.23;;;4.70;98.00;;;;;;5029941;28;20048;-87
2021/01/03 11:34:13;;;;;;;12.30;6.95;;;4.60;99.10;;;;;;5028497;28;20030;-89
2021/01/03 11:36:43;;;;;;;11.07;6.38;;;4.60;98.10;;;;;;5012688;28;20605;-87
2021/01/03 11:39:09;;;;;;;10.32;7.05;;;4.60;97.70;;;;;;5028650;28;20111;-89
2021/01/03 11:41:38;;;;;;;11.00;6.80;;;4.60;97.80;;;;;;5012304;28;20060;-91
2021/01/03 11:44:04;;;;;;;11.75;7.15;;;4.60;98.10;;;;;;5012688;28;20502;-90
2021/01/03 11:46:30;;;;;;;9.95;7.55;;;4.60;98.20;;;;;;5028763;28;20455;-90
2021/01/03 11:48:56;;;;;;;8.43;6.70;;;4.50;97.90;;;;;;5012607;28;20034;-90
2021/01/03 11:51:22;;;;;;;7.60;5.10;;;4.50;98.10;;;;;;5011756;28;21065;-90
2021/01/03 11:53:48;;;;;;;9.63;6.97;;;4.50;97.20;;;;;;5005235;28;20046;-90
2021/01/03 11:56:22;;;;;;;9.23;6.70;;;4.50;98.30;;;;;;5021203;28;20200;-90
2021/01/03 11:58:48;;;;;;;9.80;7.00;;;4.60;98.50;;;;;;5012429;28;20046;-90
2021/01/03 12:01:19;;;;;;;9.40;7.65;;;4.70;98.60;;;;;;5015251;28;20056;-90
2021/01/03 12:03:46;;;;;;;10.00;6.95;;;4.80;98.70;;;;;;5010446;28;20435;-90
2021/01/03 12:06:17;;;;;;;9.77;7.22;;;4.80;97.50;;;;;;5002523;28;20056;-90
2021/01/03 12:08:44;;;;;;;8.50;5.72;;;4.80;97.50;;;;;;5029864;28;20095;-90
2021/01/03 12:11:17;;;;;;;9.85;7.28;;;4.80;97.70;;;;;;5010456;28;20102;-90
2021/01/03 12:13:48;;;;;;;9.52;6.85;;;4.70;97.90;;;;;;5028815;28;20045;-90
2021/01/03 12:16:22;;;;;;;16.20;7.57;;;4.80;97.80;;;;;;5027584;28;20033;-89
2021/01/03 12:18:49;;;;;;;9.15;7.13;;;4.70;98.50;;;;;;5028735;28;20075;-90
2021/01/03 12:21:21;;;;;;;9.93;6.45;;;4.70;97.50;;;;;;5022889;28;20387;-88
2021/01/03 12:23:47;;;;;;;9.95;7.85;;;4.60;97.80;;;;;;5020604;28;20037;-90
2021/01/03 12:26:13;;;;;;;10.05;7.53;;;4.80;98.40;;;;;;5011321;28;20466;-90
2021/01/03 12:28:39;;;;;;;9.15;6.10;;;4.70;97.90;;;;;;5028491;28;20414;-88
2021/01/03 12:31:05;;;;;;;9.57;7.03;;;4.60;96.90;;;;;;5028713;28;20079;-90
2021/01/03 12:33:31;;;;;;;9.10;5.95;;;4.60;97.60;;;;;;5028522;28;20049;-88
2021/01/03 12:35:57;;;;;;;9.98;7.57;;;4.70;97.40;;;;;;5006234;28;20376;-90
2021/01/03 12:38:23;;;;;;;11.32;7.47;;;4.60;98.00;;;;;;5026683;28;20041;-88
2021/01/03 12:40:49;;;;;;;11.98;8.18;;;4.50;97.60;;;;;;5011636;28;20075;-91
2021/01/03 12:43:14;;;;;;;9.48;6.57;;;4.70;98.40;;;;;;5027340;28;20406;-91
2021/01/03 12:45:42;;;;;;;9.85;6.97;;;4.60;96.90;;;;;;5028197;28;20041;-91
2021/01/03 12:48:08;;;;;;;12.50;7.35;;;4.50;97.30;;;;;;5028768;28;20038;-91
2021/01/03 12:50:34;;;;;;;11.20;7.63;;;4.40;97.80;;;;;;5028711;28;20044;-92
2021/01/03 12:52:59;;;;;;;10.50;8.18;;;4.40;97.20;;;;;;5029130;28;20053;-91
2021/01/03 12:55:25;;;;;;;13.85;7.70;;;4.40;97.60;;;;;;5027256;28;20112;-90
2021/01/03 12:57:51;;;;;;;8.68;7.18;;;4.60;98.10;;;;;;5027608;28;20460;-90
2021/01/03 13:00:17;;;;;;;11.23;6.88;;;4.50;97.80;;;;;;4991413;28;20483;-91
2021/01/03 13:02:44;;;;;;;7.97;5.35;;;4.40;97.10;;;;;;5024025;28;20437;-91
2021/01/03 13:05:10;;;;;;;6.22;4.25;;;4.30;97.40;;;;;;5011715;28;20095;-90
2021/01/03 13:07:36;;;;;;;8.85;7.03;;;4.30;96.80;;;;;;5027689;28;20033;-92
2021/01/03 13:10:03;;;;;;;11.70;7.78;;;4.30;97.90;;;;;;5024473;28;20048;-91
2021/01/03 13:12:29;;;;;;;7.70;5.05;;;4.20;97.90;;;;;;5023878;28;20037;-91
2021/01/03 13:14:58;;;;;;;7.32;5.88;;;4.20;97.20;;;;;;5025609;28;20049;-91
2021/01/03 13:17:24;;;;;;;8.85;5.10;;;4.20;97.40;;;;;;5007969;28;20056;-90
2021/01/03 13:19:50;;;;;;;10.10;8.27;;;4.10;97.40;;;;;;5009290;28;20049;-89
2021/01/03 13:22:16;;;;;;;8.63;4.57;;;4.20;98.10;;;;;;5005963;28;20060;-93
2021/01/03 13:24:42;;;;;;;8.65;6.22;;;4.20;97.90;;;;;;5005527;28;20477;-91
2021/01/03 13:27:08;;;;;;;8.35;5.95;;;4.20;97.80;;;;;;5016333;28;20096;-89
2021/01/03 13:29:34;;;;;;;14.88;6.00;;;4.30;97.90;;;;;;5007225;28;20497;-92
2021/01/03 13:32:00;;;;;;;11.15;6.70;;;4.40;97.40;;;;;;5026217;28;20046;-90
2021/01/03 13:34:27;;;;;;;4.18;3.22;;;4.40;97.70;;;;;;5024543;28;20144;-90
2021/01/03 13:36:53;;;;;;;8.98;6.72;;;4.40;96.70;;;;;;5017056;28;20121;-90
2021/01/03 13:39:19;;;;;;;12.45;7.00;;;4.20;97.10;;;;;;5020372;28;20044;-89
2021/01/03 13:41:45;;;;;;;8.27;6.28;;;4.20;97.70;;;;;;5012176;28;20372;-88
2021/01/03 13:44:11;;;;;;;8.75;6.13;;;4.30;98.20;;;;;;5031551;28;20041;-89
2021/01/03 13:46:38;;;;;;;10.23;6.07;;;4.20;97.10;;;;;;5014164;28;20037;-90
2021/01/03 13:49:08;;;;;;;10.25;6.00;;;4.10;97.50;;;;;;5032280;28;20048;-88
2021/01/03 13:51:34;;;;;;;5.05;4.35;;;4.10;97.60;;;;;;5030177;28;20124;-89
2021/01/03 13:54:00;;;;;;;7.80;5.70;;;4.10;97.20;;;;;;5031309;28;20147;-90
2021/01/03 13:56:35;;;;;;;11.32;5.32;;;3.90;97.40;;;;;;5030006;28;20050;-87
2021/01/03 13:59:01;;;;;;;16.67;7.07;;;3.90;97.20;;;;;;5030707;28;20119;-88
2021/01/03 14:01:32;;;;;;;8.15;5.32;;;3.90;98.20;;;;;;5018865;28;20044;-88
2021/01/03 14:03:58;;;;;;;11.05;5.47;;;3.80;98.10;;;;;;5032410;28;20039;-89
2021/01/03 14:06:26;;;;;;;10.10;5.60;;;3.80;97.50;;;;;;5031110;28;20080;-89